Ao Nang, Thailand

8:41 PM +07 on September 24, 2017 (GMT +0700)
Phuket International | | Change Station

Elev 33 ft 8.12 °N, 98.32 °E | Updated 11 minutes ago

Rain
Rain
77 °F
Feels Like 77 °F
N
12
Wind Variable Wind from WSW
Gusts 23 mph

Today
High -- | Low -- °F
--% Chance of Precip.
Yesterday
High -- | Low -- °F
Precip. -- in
Pressure 29.89 in
Visibility 1.9 miles
Clouds Few 1500 ft
Scattered Clouds 1600 ft
Mostly Cloudy 10000 ft
Dew Point 72 °F
Humidity 83%
Rainfall 0.00 in
Snow Depth Not available.
6:13 AM 6:19 PM
Waxing Crescent, 19% visible
METAR VTSP 241330Z 25010G20KT 3000 RA FEW015CB SCT016 BKN100 25/22 Q1012 NOSIG
Pressure 29.89 in
Visibility 1.9 miles
Clouds Few 1500 ft
Scattered Clouds 1600 ft
Mostly Cloudy 10000 ft
Dew Point 72 °F
Humidity 83%
Rainfall 0.00 in
Snow Depth Not available.
6:13 AM 6:19 PM
Waxing Crescent, 19% visible
METAR VTSP 241330Z 25010G20KT 3000 RA FEW015CB SCT016 BKN100 25/22 Q1012 NOSIG

Get Severe Weather Alerts

Thanks for signing up!

Be on the lookout for a verification email in your inbox.

You'll start receiving the daily forecast at 6 AM.

×

10-Day Weather Forecast

No radar image for this location.
×

Almanac

Astronomy

Sep. 24, 2017 Rise Set
Actual Time
Civil Twilight
Nautical Twilight
Astronomical Twilight
Moon
Length of Visible Light
Length of Day
Tomorrow will be .
, % of the Moon is Illuminated

Today's Extremes

Country Highs Country Lows

Community

WunderPhotos

Category 6

Welcome to Category 6. This is the collective home for Weather Underground's featured writeups by Dr. Jeff Masters (right), Bob Henson (left), Chris Burt, and other regular contributors.

Nearby

Air Quality

  Air Quality AQ Index Pollutant
Not available.

Snow Depth

Station Depth Elevation

Earthquake Activity

City Distance Mag. Time & Date
Minimum magnitude displayed is 2.5.

Coastal Water Temperatures

Place Temperature

Stations

Nearby Weather Stations

Station Location Temp. Windchill Dew Point Humidity Wind Precip. Elev Updated Type